Time;durP1;ratioP1;P1;durP2;ratioP2;P2;SDS_P1;SDS_P2;PMS_P1;PMS_P2;Temp;Humidity;BMP_temperature;BMP_pressure;BME280_temperature;BME280_humidity;BME280_pressure;Samples;Min_cycle;Max_cycle;Signal;HPM_P1;HPM_P2
2022/03/06 00:00:12;;;;;;;12.25;7.13;;;1.30;71.20;;;;;;5010499;28;20446;-70
2022/03/06 00:02:39;;;;;;;13.40;7.13;;;1.30;71.30;;;;;;5011822;28;20494;-70
2022/03/06 00:05:05;;;;;;;14.40;7.78;;;1.30;71.50;;;;;;5011023;28;20386;-70
2022/03/06 00:07:31;;;;;;;13.98;7.55;;;1.20;71.60;;;;;;5008647;28;20030;-70
2022/03/06 00:09:57;;;;;;;13.10;7.55;;;1.20;71.80;;;;;;5010856;28;20022;-70
2022/03/06 00:12:22;;;;;;;13.35;7.40;;;1.20;72.00;;;;;;5010615;28;20038;-70
2022/03/06 00:14:48;;;;;;;15.80;7.68;;;1.20;72.20;;;;;;5011059;28;20057;-70
2022/03/06 00:17:14;;;;;;;13.77;7.30;;;1.20;72.40;;;;;;5009040;28;20030;-70
2022/03/06 00:19:39;;;;;;;10.60;7.07;;;1.20;72.60;;;;;;5011484;28;20127;-70
2022/03/06 00:22:05;;;;;;;13.90;7.25;;;1.10;72.60;;;;;;5011408;28;20032;-70
2022/03/06 00:24:31;;;;;;;13.35;7.65;;;1.10;72.60;;;;;;5009518;28;20026;-70
2022/03/06 00:26:56;;;;;;;13.38;7.38;;;1.10;72.70;;;;;;5005136;28;20026;-70
2022/03/06 00:29:22;;;;;;;14.95;7.30;;;1.10;72.80;;;;;;4999786;28;20044;-70
2022/03/06 00:31:48;;;;;;;13.98;7.43;;;1.10;72.90;;;;;;5009663;28;20033;-70
2022/03/06 00:34:13;;;;;;;13.38;7.60;;;1.10;73.00;;;;;;5011167;28;20112;-70
2022/03/06 00:36:39;;;;;;;15.90;7.95;;;1.10;73.00;;;;;;5010510;28;20037;-70
2022/03/06 00:39:05;;;;;;;14.73;7.80;;;1.10;73.10;;;;;;5009231;28;20045;-70
2022/03/06 00:41:31;;;;;;;13.95;7.70;;;1.10;73.30;;;;;;5010268;28;20058;-70
2022/03/06 00:43:56;;;;;;;14.63;8.00;;;1.00;73.30;;;;;;5013453;28;20580;-70
2022/03/06 00:46:22;;;;;;;14.50;7.82;;;1.00;73.40;;;;;;5009913;28;20054;-70
2022/03/06 00:48:48;;;;;;;14.15;7.68;;;1.00;73.40;;;;;;5008718;28;20098;-70
2022/03/06 00:51:15;;;;;;;15.68;7.68;;;1.00;73.60;;;;;;5004966;28;20104;-70
2022/03/06 00:53:41;;;;;;;12.48;7.05;;;1.00;73.70;;;;;;5007983;28;20347;-70
2022/03/06 00:56:06;;;;;;;15.82;8.10;;;1.00;73.80;;;;;;5004275;28;20139;-70
2022/03/06 00:58:32;;;;;;;14.05;7.97;;;0.90;73.90;;;;;;5008105;28;20585;-70
2022/03/06 01:00:58;;;;;;;19.13;9.00;;;1.00;74.10;;;;;;5010072;28;20026;-70
2022/03/06 01:03:23;;;;;;;13.55;7.82;;;1.00;74.20;;;;;;5009009;28;20347;-70
2022/03/06 01:05:49;;;;;;;17.25;7.40;;;0.90;74.30;;;;;;4991331;28;20038;-69
2022/03/06 01:08:15;;;;;;;13.23;7.95;;;0.90;74.40;;;;;;5001474;28;20344;-70
2022/03/06 01:10:43;;;;;;;16.90;7.95;;;0.90;74.50;;;;;;4992602;28;20121;-70
2022/03/06 01:13:09;;;;;;;17.00;8.55;;;0.90;74.70;;;;;;5009756;28;20029;-69
2022/03/06 01:15:35;;;;;;;15.98;8.25;;;0.90;74.80;;;;;;5010007;28;20037;-70
2022/03/06 01:18:01;;;;;;;16.98;8.95;;;0.90;75.00;;;;;;5009207;28;20033;-70
2022/03/06 01:20:27;;;;;;;15.75;8.48;;;0.90;75.10;;;;;;4992876;28;20311;-69
2022/03/06 01:22:53;;;;;;;13.65;8.05;;;0.80;75.20;;;;;;4992456;28;20666;-70
2022/03/06 01:25:20;;;;;;;13.57;7.35;;;0.80;75.30;;;;;;5009380;28;20636;-70
2022/03/06 01:27:46;;;;;;;14.43;8.65;;;0.80;75.50;;;;;;5009395;28;20040;-70
2022/03/06 01:30:15;;;;;;;15.43;8.40;;;0.80;75.70;;;;;;5009334;28;20038;-70
2022/03/06 01:32:41;;;;;;;15.75;8.52;;;0.80;75.70;;;;;;5007055;28;20026;-69
2022/03/06 01:35:07;;;;;;;13.25;7.90;;;0.80;75.90;;;;;;5009718;28;20381;-69
2022/03/06 01:37:33;;;;;;;15.32;8.23;;;0.70;76.00;;;;;;5007378;28;20034;-69
2022/03/06 01:39:59;;;;;;;14.65;8.50;;;0.70;76.10;;;;;;5009913;28;20076;-69
2022/03/06 01:42:26;;;;;;;15.15;8.43;;;0.70;76.20;;;;;;5009797;28;20529;-69
2022/03/06 01:44:52;;;;;;;16.95;8.98;;;0.60;76.30;;;;;;5008786;28;20109;-69
2022/03/06 01:47:41;;;;;;;13.85;8.15;;;0.70;76.60;;;;;;5008013;28;20410;-69
2022/03/06 01:50:12;;;;;;;15.73;8.63;;;0.60;77.00;;;;;;5006087;28;20017;-69
2022/03/06 01:52:38;;;;;;;15.25;8.90;;;0.60;76.80;;;;;;5007288;28;20109;-69
2022/03/06 01:55:04;;;;;;;16.70;9.25;;;0.60;77.00;;;;;;5000588;28;20439;-69
2022/03/06 01:57:31;;;;;;;16.38;8.18;;;0.60;77.30;;;;;;5007984;28;20098;-69
2022/03/06 01:59:57;;;;;;;15.43;8.38;;;0.60;77.50;;;;;;5009321;28;20056;-69
2022/03/06 02:02:23;;;;;;;17.38;8.65;;;0.60;77.60;;;;;;5008290;28;20072;-69
2022/03/06 02:04:49;;;;;;;16.48;8.75;;;0.50;77.60;;;;;;5007534;28;20398;-69
2022/03/06 02:07:14;;;;;;;16.52;8.98;;;0.60;77.80;;;;;;4995976;28;20026;-69
2022/03/06 02:09:40;;;;;;;16.40;8.75;;;0.50;77.90;;;;;;5008144;28;20097;-69
2022/03/06 02:12:24;;;;;;;17.08;8.60;;;0.50;78.00;;;;;;5007776;28;20497;-69
2022/03/06 02:14:58;;;;;;;13.73;8.05;;;0.50;78.20;;;;;;5003959;28;20025;-69
2022/03/06 02:17:25;;;;;;;16.77;9.13;;;0.50;78.50;;;;;;5005837;28;20032;-69
2022/03/06 02:20:08;;;;;;;16.88;8.55;;;0.50;78.50;;;;;;5009115;28;20080;-69
2022/03/06 02:22:36;;;;;;;19.73;9.27;;;0.50;79.00;;;;;;5008440;28;20038;-69
2022/03/06 02:25:10;;;;;;;18.52;8.70;;;0.50;78.80;;;;;;5008658;28;20034;-69
2022/03/06 02:27:36;;;;;;;22.90;9.15;;;0.40;78.90;;;;;;5006625;28;20029;-69
2022/03/06 02:30:11;;;;;;;15.32;8.43;;;0.40;79.00;;;;;;5009525;28;20030;-69
2022/03/06 02:32:39;;;;;;;13.75;7.40;;;0.40;79.40;;;;;;5008217;28;20112;-69
2022/03/06 02:35:06;;;;;;;17.05;8.77;;;0.40;79.30;;;;;;5006827;28;20045;-69
2022/03/06 02:37:32;;;;;;;15.27;8.63;;;0.40;79.60;;;;;;5007737;28;20029;-69
2022/03/06 02:40:00;;;;;;;15.93;8.93;;;0.40;79.90;;;;;;5009163;28;20083;-69
2022/03/06 02:42:38;;;;;;;16.75;8.93;;;0.40;80.10;;;;;;4990519;28;20462;-68
2022/03/06 02:45:15;;;;;;;16.73;9.45;;;0.40;80.20;;;;;;4990291;28;20640;-69
2022/03/06 02:47:41;;;;;;;15.98;8.43;;;0.40;80.40;;;;;;5004354;28;20058;-69
2022/03/06 02:50:10;;;;;;;18.38;9.00;;;0.40;80.40;;;;;;5006342;28;20077;-69
2022/03/06 02:52:35;;;;;;;23.50;10.10;;;0.40;80.50;;;;;;5006526;28;20104;-69
2022/03/06 02:55:01;;;;;;;21.88;10.32;;;0.40;80.80;;;;;;5000492;28;20515;-69
2022/03/06 02:57:27;;;;;;;18.17;9.82;;;0.40;80.80;;;;;;5005373;28;20038;-69
2022/03/06 02:59:52;;;;;;;16.45;8.68;;;0.40;81.00;;;;;;5008973;28;20125;-69
2022/03/06 03:02:18;;;;;;;15.30;8.60;;;0.40;81.20;;;;;;5008240;28;20058;-69
2022/03/06 03:04:44;;;;;;;16.15;9.32;;;0.40;81.40;;;;;;5007343;28;20030;-69
2022/03/06 03:07:10;;;;;;;14.43;8.50;;;0.40;81.50;;;;;;5007746;28;20087;-69
2022/03/06 03:09:36;;;;;;;16.25;8.85;;;0.40;81.60;;;;;;5008200;28;20029;-69
2022/03/06 03:12:03;;;;;;;18.33;9.95;;;0.40;81.90;;;;;;5012023;28;20006;-69
2022/03/06 03:14:31;;;;;;;16.65;9.07;;;0.30;82.00;;;;;;5012479;28;20045;-68
2022/03/06 03:16:58;;;;;;;15.65;8.60;;;0.30;82.20;;;;;;5011952;28;20026;-69
2022/03/06 03:19:24;;;;;;;15.52;8.63;;;0.30;82.80;;;;;;5011524;28;20030;-69
2022/03/06 03:21:50;;;;;;;14.20;8.15;;;0.30;82.50;;;;;;5011003;28;20030;-69
2022/03/06 03:24:15;;;;;;;16.00;8.85;;;0.30;82.60;;;;;;5012444;28;20026;-69
2022/03/06 03:26:41;;;;;;;18.13;9.43;;;0.20;82.80;;;;;;5012880;28;20477;-69
2022/03/06 03:29:06;;;;;;;16.33;9.15;;;0.20;83.00;;;;;;5010341;28;20048;-69
2022/03/06 03:31:32;;;;;;;16.42;8.80;;;0.20;83.00;;;;;;5011728;28;20110;-69
2022/03/06 03:33:58;;;;;;;17.77;9.70;;;0.20;83.30;;;;;;5008848;28;20053;-69
2022/03/06 03:36:23;;;;;;;16.70;9.05;;;0.20;83.50;;;;;;5012660;28;20391;-69
2022/03/06 03:38:49;;;;;;;17.17;9.23;;;0.20;83.70;;;;;;5010586;28;20443;-69
2022/03/06 03:41:14;;;;;;;18.23;9.23;;;0.20;83.90;;;;;;5011392;28;20037;-69
2022/03/06 03:43:40;;;;;;;15.52;8.57;;;0.10;84.00;;;;;;5010674;28;20022;-69
2022/03/06 03:46:06;;;;;;;21.08;10.15;;;0.20;84.20;;;;;;5012231;28;20083;-69
2022/03/06 03:48:32;;;;;;;18.23;9.30;;;0.20;84.40;;;;;;5006863;28;20026;-70
2022/03/06 03:50:57;;;;;;;15.77;8.73;;;0.10;84.50;;;;;;5008632;28;20116;-70
2022/03/06 03:53:23;;;;;;;15.98;9.07;;;0.10;84.60;;;;;;4993056;28;20022;-69
2022/03/06 03:55:50;;;;;;;17.40;9.20;;;0.10;84.70;;;;;;5009188;28;20033;-69
2022/03/06 03:58:16;;;;;;;17.17;9.48;;;0.10;84.80;;;;;;5009598;28;20490;-70
2022/03/06 04:00:45;;;;;;;19.15;8.30;;;0.10;85.00;;;;;;5011617;28;20041;-69
2022/03/06 04:03:11;;;;;;;17.30;9.15;;;0.10;85.00;;;;;;5010475;28;20466;-70
2022/03/06 04:05:36;;;;;;;19.15;9.02;;;0.10;85.20;;;;;;5011074;28;20022;-70
2022/03/06 04:08:02;;;;;;;17.98;9.13;;;0.10;85.40;;;;;;5009419;28;20037;-70
2022/03/06 04:10:28;;;;;;;16.10;9.23;;;0.00;85.60;;;;;;5010646;28;20061;-69
2022/03/06 04:12:54;;;;;;;19.10;9.88;;;0.00;85.80;;;;;;4993100;28;20054;-70
2022/03/06 04:15:19;;;;;;;17.38;8.95;;;0.00;85.90;;;;;;5016909;28;20470;-70
2022/03/06 04:17:45;;;;;;;18.50;9.02;;;0.00;85.90;;;;;;5008941;28;20026;-69
2022/03/06 04:20:11;;;;;;;16.48;9.25;;;0.00;86.00;;;;;;5010369;28;20042;-70
2022/03/06 04:22:37;;;;;;;16.58;9.30;;;-0.10;86.00;;;;;;5010914;28;20544;-69
2022/03/06 04:25:04;;;;;;;19.98;8.93;;;-0.10;86.20;;;;;;5009658;28;20037;-70
2022/03/06 04:27:29;;;;;;;17.73;8.82;;;-0.10;86.30;;;;;;5008999;28;20054;-69
2022/03/06 04:29:55;;;;;;;17.35;8.90;;;-0.20;86.40;;;;;;5010834;28;20495;-70
2022/03/06 04:32:21;;;;;;;16.63;9.30;;;-0.20;86.60;;;;;;5008866;28;20402;-70
2022/03/06 04:34:46;;;;;;;16.33;9.23;;;-0.20;86.70;;;;;;5011062;28;20076;-69
2022/03/06 04:37:12;;;;;;;17.15;9.07;;;-0.20;86.80;;;;;;5009828;28;20029;-69
2022/03/06 04:39:37;;;;;;;16.50;9.20;;;-0.30;86.80;;;;;;5010660;28;20026;-69
2022/03/06 04:42:03;;;;;;;18.13;9.25;;;-0.30;87.00;;;;;;5010357;28;20497;-69
2022/03/06 04:44:29;;;;;;;19.08;9.68;;;-0.30;87.20;;;;;;5010162;28;20080;-69
2022/03/06 04:46:55;;;;;;;16.45;8.73;;;-0.30;87.30;;;;;;5009368;28;20054;-70
2022/03/06 04:49:20;;;;;;;17.35;9.85;;;-0.30;87.50;;;;;;5007257;28;20621;-69
2022/03/06 04:51:46;;;;;;;18.83;9.68;;;-0.30;87.70;;;;;;5008624;28;20026;-70
2022/03/06 04:54:11;;;;;;;15.98;8.82;;;-0.40;87.70;;;;;;5006179;28;20033;-69
2022/03/06 04:56:37;;;;;;;18.77;8.88;;;-0.40;87.80;;;;;;5007884;28;20045;-69
2022/03/06 04:59:03;;;;;;;16.23;9.38;;;-0.40;87.90;;;;;;5009295;28;20026;-69
2022/03/06 05:01:28;;;;;;;14.93;9.30;;;-0.40;88.20;;;;;;5008738;28;20026;-70
2022/03/06 05:03:54;;;;;;;16.75;9.10;;;-0.40;88.40;;;;;;5010356;28;20193;-70
2022/03/06 05:06:19;;;;;;;17.60;8.93;;;-0.40;88.70;;;;;;5010714;28;20628;-69
2022/03/06 05:08:45;;;;;;;15.93;8.68;;;-0.40;88.80;;;;;;5009176;28;20037;-69
2022/03/06 05:11:11;;;;;;;20.30;9.35;;;-0.40;88.80;;;;;;5010178;28;20435;-69
2022/03/06 05:13:37;;;;;;;15.50;8.90;;;-0.40;88.90;;;;;;5002726;28;20018;-69
2022/03/06 05:16:03;;;;;;;15.43;8.32;;;-0.40;89.10;;;;;;5006215;28;20495;-70
2022/03/06 05:18:29;;;;;;;18.63;8.98;;;-0.40;89.10;;;;;;5008003;28;20512;-70
2022/03/06 05:20:55;;;;;;;16.80;9.02;;;-0.40;89.20;;;;;;5011230;28;20149;-69
2022/03/06 05:23:21;;;;;;;13.90;8.80;;;-0.50;89.30;;;;;;5010999;28;20477;-69
2022/03/06 05:25:47;;;;;;;17.20;8.85;;;-0.50;89.40;;;;;;5010833;28;20036;-68
2022/03/06 05:28:12;;;;;;;15.65;8.77;;;-0.50;89.50;;;;;;5010267;28;20038;-70
2022/03/06 05:30:38;;;;;;;17.27;8.90;;;-0.50;89.60;;;;;;5010538;28;20042;-67
2022/03/06 05:33:04;;;;;;;20.30;9.43;;;-0.50;89.80;;;;;;5010109;28;20037;-68
2022/03/06 05:35:30;;;;;;;16.92;8.63;;;-0.50;89.90;;;;;;5011098;28;20030;-70
2022/03/06 05:37:56;;;;;;;17.63;9.50;;;-0.50;90.00;;;;;;5008356;28;20033;-70
2022/03/06 05:40:21;;;;;;;17.90;9.10;;;-0.60;90.00;;;;;;5009465;28;20096;-68
2022/03/06 05:45:15;;;;;;;19.92;9.32;;;-0.60;90.20;;;;;;5026751;28;20057;-75
2022/03/06 05:47:41;;;;;;;16.80;9.07;;;-0.60;90.30;;;;;;5027998;28;20018;-75
2022/03/06 05:50:07;;;;;;;18.40;9.32;;;-0.60;90.40;;;;;;5014911;28;20689;-75
2022/03/06 05:52:33;;;;;;;16.75;8.80;;;-0.60;90.30;;;;;;5029427;28;20037;-75
2022/03/06 05:54:59;;;;;;;17.50;9.35;;;-0.60;90.40;;;;;;5026530;28;20534;-75
2022/03/06 05:57:24;;;;;;;17.70;9.07;;;-0.60;90.40;;;;;;5030574;28;20105;-75
2022/03/06 05:59:51;;;;;;;22.80;9.52;;;-0.60;90.40;;;;;;5029876;28;20106;-75
2022/03/06 06:02:17;;;;;;;19.05;9.60;;;-0.60;90.50;;;;;;5029332;28;20509;-75
2022/03/06 06:04:42;;;;;;;14.55;7.72;;;-0.70;90.50;;;;;;5028729;28;20098;-75
2022/03/06 06:07:09;;;;;;;18.77;9.55;;;-0.70;90.50;;;;;;5028369;28;20025;-75
2022/03/06 06:09:35;;;;;;;18.15;8.43;;;-0.70;90.50;;;;;;5029326;28;20021;-75
2022/03/06 06:12:01;;;;;;;15.60;8.98;;;-0.70;90.60;;;;;;5027943;28;20051;-75
2022/03/06 06:14:26;;;;;;;15.95;9.30;;;-0.70;90.70;;;;;;5028913;28;20052;-74
2022/03/06 06:16:52;;;;;;;18.30;9.38;;;-0.70;90.80;;;;;;5028228;28;20026;-74
2022/03/06 06:19:18;;;;;;;15.10;8.15;;;-0.70;90.80;;;;;;5028544;28;20116;-75
2022/03/06 06:21:44;;;;;;;19.98;9.50;;;-0.70;90.90;;;;;;5029030;28;20033;-75
2022/03/06 06:24:11;;;;;;;17.67;9.38;;;-0.70;90.90;;;;;;5029357;28;20152;-74
2022/03/06 06:26:37;;;;;;;16.63;8.68;;;-0.70;91.10;;;;;;5027911;28;20061;-75
2022/03/06 06:29:03;;;;;;;17.30;9.30;;;-0.70;91.20;;;;;;5027956;28;20147;-74
2022/03/06 06:31:28;;;;;;;16.45;9.02;;;-0.70;91.30;;;;;;5027824;28;20029;-75
2022/03/06 06:33:55;;;;;;;15.52;8.73;;;-0.70;91.30;;;;;;5027510;28;20026;-74
2022/03/06 06:36:20;;;;;;;15.55;8.95;;;-0.60;91.40;;;;;;5029486;28;20033;-74
2022/03/06 06:38:46;;;;;;;18.38;9.38;;;-0.60;91.40;;;;;;5026766;28;20529;-75
2022/03/06 06:41:12;;;;;;;15.52;9.07;;;-0.50;91.50;;;;;;5029143;28;20044;-75
2022/03/06 06:43:37;;;;;;;14.95;8.65;;;-0.30;91.50;;;;;;5028305;28;20033;-75
2022/03/06 06:46:03;;;;;;;14.20;8.73;;;0.10;91.30;;;;;;5032590;28;20481;-74
2022/03/06 06:48:28;;;;;;;12.60;8.25;;;0.50;91.00;;;;;;5027164;28;20021;-74
2022/03/06 06:50:54;;;;;;;14.27;8.35;;;0.90;90.80;;;;;;5033037;28;20024;-75
2022/03/06 06:53:19;;;;;;;13.15;7.78;;;1.20;90.50;;;;;;5031239;28;20158;-71
2022/03/06 06:55:45;;;;;;;14.77;8.30;;;1.40;90.20;;;;;;5029071;28;20025;-70
2022/03/06 06:58:11;;;;;;;14.38;8.45;;;1.70;90.00;;;;;;5027924;28;20038;-72
2022/03/06 07:00:36;;;;;;;14.90;8.45;;;2.10;89.00;;;;;;5026143;28;20096;-72
2022/03/06 07:03:02;;;;;;;14.63;7.70;;;2.30;88.20;;;;;;5032554;28;20026;-72
2022/03/06 07:05:28;;;;;;;13.10;8.13;;;2.50;87.70;;;;;;5030418;28;20100;-73
2022/03/06 07:07:53;;;;;;;16.27;8.23;;;2.50;88.00;;;;;;5029007;28;20389;-74
2022/03/06 07:10:19;;;;;;;10.73;7.28;;;2.60;88.60;;;;;;5032818;28;20030;-74
2022/03/06 07:12:48;;;;;;;13.55;8.25;;;2.90;87.90;;;;;;5032766;28;20446;-74
2022/03/06 07:15:15;;;;;;;12.52;7.63;;;3.20;86.70;;;;;;5028694;28;20021;-75
2022/03/06 07:17:41;;;;;;;13.80;7.75;;;3.40;86.00;;;;;;5024548;28;20366;-75
2022/03/06 07:20:08;;;;;;;12.15;7.60;;;3.40;85.60;;;;;;5031917;28;20014;-76
2022/03/06 07:22:34;;;;;;;13.65;8.02;;;3.30;86.40;;;;;;5033014;28;20022;-76
2022/03/06 07:25:00;;;;;;;14.52;7.88;;;3.30;87.20;;;;;;5033624;28;20041;-75
2022/03/06 07:27:25;;;;;;;15.48;8.45;;;3.70;86.40;;;;;;5030795;28;20053;-75
2022/03/06 07:29:51;;;;;;;11.30;7.38;;;4.00;85.20;;;;;;5033142;28;20067;-74
2022/03/06 07:32:16;;;;;;;15.10;7.78;;;4.40;84.30;;;;;;5033049;28;20025;-74
2022/03/06 07:34:43;;;;;;;14.40;7.88;;;4.60;83.90;;;;;;5030090;28;20428;-75
2022/03/06 07:37:09;;;;;;;11.90;7.63;;;4.60;84.40;;;;;;5029334;28;20030;-75
2022/03/06 07:39:34;;;;;;;12.60;7.88;;;4.80;84.80;;;;;;5032784;28;20083;-75
2022/03/06 07:42:00;;;;;;;11.55;7.90;;;5.30;83.50;;;;;;5034172;28;20091;-74
2022/03/06 07:44:26;;;;;;;11.07;7.63;;;5.70;81.90;;;;;;5033957;28;20029;-75
2022/03/06 07:46:52;;;;;;;11.80;7.00;;;6.00;80.80;;;;;;5033475;28;20108;-75
2022/03/06 07:49:17;;;;;;;12.45;7.53;;;6.40;80.20;;;;;;5030845;28;20125;-75
2022/03/06 07:51:44;;;;;;;12.88;7.57;;;6.50;79.20;;;;;;5032555;28;20673;-75
2022/03/06 07:54:14;;;;;;;18.52;8.30;;;6.60;79.10;;;;;;5033251;28;20061;-75
2022/03/06 07:56:40;;;;;;;12.18;7.63;;;7.00;78.40;;;;;;5031774;28;20025;-75
2022/03/06 07:59:06;;;;;;;13.00;7.60;;;7.20;77.30;;;;;;5031290;28;20021;-75
2022/03/06 08:01:31;;;;;;;12.77;8.00;;;7.40;76.30;;;;;;5021401;28;20025;-75
2022/03/06 08:03:57;;;;;;;13.43;7.95;;;7.60;75.60;;;;;;5032818;28;20094;-75
2022/03/06 08:06:23;;;;;;;12.85;7.88;;;7.70;75.70;;;;;;5032397;28;20159;-75
2022/03/06 08:08:49;;;;;;;12.50;7.75;;;7.70;75.70;;;;;;5029562;28;20083;-75
2022/03/06 08:11:14;;;;;;;10.45;7.47;;;7.80;75.60;;;;;;5032592;28;20021;-75
2022/03/06 08:13:40;;;;;;;12.40;7.82;;;7.80;75.20;;;;;;5031235;28;20040;-75
2022/03/06 08:16:06;;;;;;;11.40;8.18;;;7.90;74.90;;;;;;5032482;28;20029;-75
2022/03/06 08:18:31;;;;;;;10.60;7.90;;;7.90;74.60;;;;;;5030700;28;20121;-75
2022/03/06 08:20:57;;;;;;;11.57;7.85;;;7.80;75.10;;;;;;5024283;28;20029;-75
2022/03/06 08:23:23;;;;;;;12.88;8.73;;;7.60;75.20;;;;;;5026682;28;20076;-75
2022/03/06 08:25:48;;;;;;;9.40;6.70;;;7.50;76.10;;;;;;5031315;28;20056;-76
2022/03/06 08:28:14;;;;;;;12.93;7.30;;;7.40;76.80;;;;;;5029952;28;20057;-76
2022/03/06 08:30:40;;;;;;;13.27;8.82;;;7.40;76.50;;;;;;5026070;28;20113;-76
2022/03/06 08:33:05;;;;;;;10.32;7.40;;;7.30;76.90;;;;;;5030141;28;20063;-76
2022/03/06 08:35:31;;;;;;;10.52;8.15;;;7.30;77.30;;;;;;5032571;28;20030;-75
2022/03/06 08:37:57;;;;;;;13.40;7.38;;;7.30;77.10;;;;;;5030528;28;20498;-75
2022/03/06 08:40:23;;;;;;;12.13;8.07;;;7.20;77.50;;;;;;5035514;28;20543;-75
2022/03/06 08:42:49;;;;;;;13.32;8.50;;;7.20;78.40;;;;;;5030620;28;20037;-76
2022/03/06 08:45:15;;;;;;;9.63;7.00;;;7.40;78.90;;;;;;5035532;28;20537;-76
2022/03/06 08:47:41;;;;;;;10.57;7.28;;;7.50;78.00;;;;;;5031297;28;20037;-76
2022/03/06 08:50:07;;;;;;;13.07;8.30;;;7.50;77.50;;;;;;5036015;28;20029;-76
2022/03/06 08:52:33;;;;;;;10.55;7.15;;;7.50;76.80;;;;;;5033308;28;20030;-76
2022/03/06 08:54:59;;;;;;;12.85;7.90;;;7.50;76.50;;;;;;5035884;28;20096;-75
2022/03/06 08:57:24;;;;;;;12.57;8.23;;;7.50;75.90;;;;;;5033772;28;20500;-76
2022/03/06 08:59:50;;;;;;;11.48;7.68;;;7.50;75.50;;;;;;5030717;28;20091;-76
2022/03/06 09:02:16;;;;;;;12.05;7.97;;;7.50;75.10;;;;;;5027415;28;20112;-76
2022/03/06 09:04:42;;;;;;;12.68;8.35;;;7.50;75.20;;;;;;5027680;28;20116;-76
2022/03/06 09:07:07;;;;;;;13.55;8.27;;;7.50;74.50;;;;;;5029665;28;20237;-76
2022/03/06 09:09:33;;;;;;;11.82;7.55;;;7.50;74.00;;;;;;5029337;28;20036;-76
2022/03/06 09:11:59;;;;;;;12.20;7.68;;;7.50;73.70;;;;;;5030780;28;20496;-75
2022/03/06 09:14:24;;;;;;;12.70;8.13;;;7.50;73.10;;;;;;5031405;28;20033;-75
2022/03/06 09:16:50;;;;;;;11.95;7.40;;;7.40;72.80;;;;;;5030614;28;20025;-76
2022/03/06 09:19:16;;;;;;;13.38;7.93;;;7.40;72.10;;;;;;5028693;28;20047;-74
2022/03/06 09:21:43;;;;;;;14.93;8.10;;;7.40;72.10;;;;;;5028544;28;20021;-75
2022/03/06 09:24:09;;;;;;;12.07;7.28;;;7.30;71.70;;;;;;5021588;28;20390;-75
2022/03/06 09:26:35;;;;;;;8.90;6.47;;;7.10;70.60;;;;;;5027745;28;20017;-75
2022/03/06 09:29:01;;;;;;;10.93;6.65;;;6.80;70.00;;;;;;5028721;28;20500;-75
2022/03/06 09:31:27;;;;;;;8.40;6.40;;;6.60;70.10;;;;;;5026028;28;20101;-76
2022/03/06 09:33:53;;;;;;;9.43;6.07;;;6.50;69.50;;;;;;5030261;28;20029;-74
2022/03/06 09:36:19;;;;;;;10.40;6.22;;;6.30;69.10;;;;;;5030601;28;20037;-75
2022/03/06 09:38:44;;;;;;;10.82;6.50;;;6.30;68.90;;;;;;5029073;28;20025;-76
2022/03/06 09:41:16;;;;;;;10.52;6.63;;;6.20;69.00;;;;;;5025404;28;20025;-76
2022/03/06 09:43:42;;;;;;;8.88;6.00;;;6.10;68.90;;;;;;5029981;28;20044;-75
2022/03/06 09:46:08;;;;;;;9.93;5.78;;;6.00;68.50;;;;;;5028826;28;20029;-76
2022/03/06 09:48:35;;;;;;;10.55;5.88;;;5.80;68.40;;;;;;5028999;28;20025;-76
2022/03/06 09:51:02;;;;;;;9.25;5.70;;;5.70;68.20;;;;;;5029531;28;20359;-75
2022/03/06 09:53:29;;;;;;;8.57;5.40;;;5.50;68.00;;;;;;5030067;28;20108;-76
2022/03/06 09:55:54;;;;;;;9.10;5.97;;;5.40;67.80;;;;;;5028435;28;20029;-76
2022/03/06 09:58:20;;;;;;;9.90;6.53;;;5.30;67.40;;;;;;5028338;28;20037;-75
2022/03/06 10:00:45;;;;;;;9.00;6.13;;;5.20;67.60;;;;;;5026712;28;20029;-77
2022/03/06 10:03:22;;;;;;;10.23;5.78;;;5.10;67.40;;;;;;5028998;28;20025;-74
2022/03/06 10:05:48;;;;;;;9.57;5.70;;;5.10;67.20;;;;;;5025262;28;20444;-72
2022/03/06 10:08:19;;;;;;;11.65;6.05;;;5.00;67.20;;;;;;5027181;28;20025;-74
2022/03/06 10:10:48;;;;;;;8.90;5.70;;;5.00;67.50;;;;;;5024646;28;20022;-73
2022/03/06 10:13:24;;;;;;;9.40;6.40;;;5.10;68.10;;;;;;5025112;28;20037;-75
2022/03/06 10:15:57;;;;;;;7.95;5.40;;;5.20;67.00;;;;;;5028331;28;20065;-74
2022/03/06 10:18:23;;;;;;;10.60;6.78;;;5.20;67.00;;;;;;5023209;28;20052;-73
2022/03/06 10:20:48;;;;;;;8.00;5.25;;;5.20;67.30;;;;;;5021312;28;20482;-72
2022/03/06 10:23:27;;;;;;;9.75;5.85;;;5.20;67.00;;;;;;5025734;28;20029;-73
2022/03/06 10:26:09;;;;;;;10.52;6.05;;;5.10;66.50;;;;;;5019676;28;20091;-69
2022/03/06 10:28:55;;;;;;;9.43;6.05;;;5.10;66.50;;;;;;5023583;28;20028;-70
2022/03/06 10:31:22;;;;;;;11.43;7.22;;;5.10;67.10;;;;;;5023394;28;20029;-69
2022/03/06 10:33:59;;;;;;;10.20;6.25;;;5.00;67.10;;;;;;5024446;28;20017;-69
2022/03/06 10:36:33;;;;;;;8.10;5.88;;;5.10;67.00;;;;;;5029447;28;20537;-69
2022/03/06 10:38:58;;;;;;;9.63;6.47;;;5.10;67.00;;;;;;5026357;28;20118;-69
2022/03/06 10:41:34;;;;;;;9.80;6.13;;;5.00;67.10;;;;;;5026812;28;20104;-68
2022/03/06 10:43:59;;;;;;;9.23;6.15;;;5.00;66.70;;;;;;5027113;28;20171;-68
2022/03/06 10:46:25;;;;;;;10.00;6.00;;;5.00;66.80;;;;;;5029782;28;20456;-68
2022/03/06 10:48:54;;;;;;;9.20;6.28;;;5.00;66.80;;;;;;5026328;28;20052;-69
2022/03/06 10:51:21;;;;;;;9.93;6.25;;;5.00;66.90;;;;;;5022768;28;20042;-69
2022/03/06 10:54:14;;;;;;;10.00;5.90;;;5.00;66.90;;;;;;5029395;28;20120;-69
2022/03/06 10:56:44;;;;;;;8.93;5.63;;;4.90;66.40;;;;;;5034342;28;20033;-70
2022/03/06 10:59:10;;;;;;;9.40;6.28;;;4.90;66.60;;;;;;5032387;28;20031;-69
2022/03/06 11:01:38;;;;;;;9.80;6.72;;;4.90;66.40;;;;;;5029164;28;20084;-69
2022/03/06 11:04:06;;;;;;;12.15;7.53;;;4.90;66.40;;;;;;5027187;28;20040;-71
2022/03/06 11:06:40;;;;;;;13.75;6.85;;;4.90;66.60;;;;;;5013380;28;20026;-68
2022/03/06 11:09:14;;;;;;;9.45;6.68;;;5.00;66.40;;;;;;5022314;28;20021;-68
2022/03/06 11:11:41;;;;;;;10.10;6.05;;;5.00;66.30;;;;;;5019646;28;20115;-68
2022/03/06 11:14:08;;;;;;;9.82;6.68;;;5.00;66.40;;;;;;5022152;28;20360;-68
2022/03/06 11:16:36;;;;;;;9.27;6.03;;;5.00;66.60;;;;;;5029510;28;20091;-68
2022/03/06 11:19:02;;;;;;;10.23;6.20;;;5.10;66.60;;;;;;5020977;28;20061;-70
2022/03/06 11:21:31;;;;;;;11.52;6.30;;;5.10;66.50;;;;;;5026677;28;20029;-70
2022/03/06 11:23:59;;;;;;;10.10;6.80;;;5.20;66.40;;;;;;5029259;28;20026;-71
2022/03/06 11:27:02;;;;;;;12.85;6.38;;;5.20;66.50;;;;;;5028403;28;20497;-68
2022/03/06 11:29:51;;;;;;;9.90;6.80;;;5.30;66.40;;;;;;5024861;28;20413;-71
2022/03/06 11:32:26;;;;;;;8.85;6.25;;;5.30;66.50;;;;;;5026838;28;20363;-69
2022/03/06 11:34:59;;;;;;;10.73;6.60;;;5.30;66.10;;;;;;5029662;28;20045;-69
2022/03/06 11:37:28;;;;;;;9.15;6.00;;;5.20;66.10;;;;;;5031962;28;20516;-69
2022/03/06 11:39:54;;;;;;;9.50;6.43;;;5.20;66.10;;;;;;5030872;28;20034;-69
2022/03/06 11:42:53;;;;;;;13.02;7.03;;;5.10;66.00;;;;;;5038924;23;20544;-68
2022/03/06 11:45:51;;;;;;;10.63;6.97;;;5.10;66.10;;;;;;5030009;28;20042;-70
2022/03/06 11:48:44;;;;;;;10.40;6.72;;;5.20;65.90;;;;;;5024284;28;20496;-69
2022/03/06 11:51:19;;;;;;;;;;;5.10;66.20;;;;;;5018440;28;20033;-70
2022/03/06 11:54:09;;;;;;;10.88;6.70;;;5.20;66.70;;;;;;5023082;28;19909;-71
2022/03/06 11:56:35;;;;;;;11.68;6.50;;;5.10;66.40;;;;;;5028343;28;20083;-70
2022/03/06 11:59:06;;;;;;;12.32;7.05;;;5.10;66.50;;;;;;5026765;28;20025;-70
2022/03/06 12:01:39;;;;;;;11.45;7.63;;;5.10;66.50;;;;;;5035869;28;20048;-70
2022/03/06 12:04:34;;;;;;;10.98;7.50;;;5.10;66.50;;;;;;5018456;28;20068;-70
2022/03/06 12:07:08;;;;;;;11.05;6.45;;;5.10;66.70;;;;;;5023926;28;20045;-70
2022/03/06 12:09:38;;;;;;;10.60;6.57;;;5.20;66.60;;;;;;5029792;28;20485;-69
2022/03/06 12:12:07;;;;;;;9.82;6.43;;;5.30;66.50;;;;;;5030356;28;20369;-70
2022/03/06 12:14:37;;;;;;;12.48;6.97;;;5.30;66.40;;;;;;5029204;28;20037;-70
2022/03/06 12:17:03;;;;;;;90.78;41.55;;;5.40;66.50;;;;;;5006606;28;20041;-70
2022/03/06 12:19:35;;;;;;;10.57;7.07;;;5.50;66.80;;;;;;5027052;28;20021;-70
2022/03/06 12:22:10;;;;;;;12.38;7.57;;;5.60;67.20;;;;;;5020200;28;20434;-70
2022/03/06 12:24:36;;;;;;;10.88;6.70;;;5.60;66.70;;;;;;5030117;28;20037;-70
2022/03/06 12:27:14;;;;;;;10.00;6.30;;;5.60;66.50;;;;;;5003865;28;20124;-71
2022/03/06 12:29:48;;;;;;;9.90;6.53;;;5.40;65.70;;;;;;5025345;28;20022;-69
2022/03/06 12:32:29;;;;;;;11.88;6.35;;;5.30;65.20;;;;;;5006547;28;21624;-70
2022/03/06 12:35:17;;;;;;;11.38;6.30;;;5.20;65.40;;;;;;5013668;28;20026;-70
2022/03/06 12:37:54;;;;;;;9.65;5.68;;;5.10;66.20;;;;;;5028402;28;20111;-69
2022/03/06 12:40:25;;;;;;;9.98;6.22;;;5.10;66.10;;;;;;5030081;28;20041;-70
2022/03/06 12:42:59;;;;;;;11.68;6.45;;;5.00;66.10;;;;;;5030041;28;20025;-70
2022/03/06 12:45:25;;;;;;;9.55;6.50;;;5.00;66.00;;;;;;5030206;28;20049;-69
2022/03/06 12:47:50;;;;;;;11.30;6.30;;;5.00;66.40;;;;;;5027788;28;20032;-70
2022/03/06 12:50:18;;;;;;;11.85;6.90;;;5.00;66.40;;;;;;5006335;28;20515;-70